createdAt,value
2023-03-10T00:00:34.322Z,5.20
2023-03-10T00:03:22.891Z,4.70
2023-03-10T00:05:52.363Z,4.80
2023-03-10T00:08:22.095Z,5.00
2023-03-10T00:10:51.130Z,5.00
2023-03-10T00:13:21.481Z,5.20
2023-03-10T00:15:50.793Z,4.30
2023-03-10T00:18:21.129Z,4.40
2023-03-10T00:20:55.246Z,4.60
2023-03-10T00:23:25.841Z,4.50
2023-03-10T00:26:01.502Z,5.30
2023-03-10T00:28:33.937Z,5.40
2023-03-10T00:31:07.400Z,4.40
2023-03-10T00:33:40.700Z,5.80
2023-03-10T00:36:19.576Z,5.10
2023-03-10T00:38:54.905Z,5.10
2023-03-10T00:41:27.644Z,4.90
2023-03-10T00:43:58.998Z,5.60
2023-03-10T00:46:30.412Z,5.20
2023-03-10T00:49:00.208Z,5.70
2023-03-10T00:51:30.055Z,6.20
2023-03-10T00:54:02.963Z,5.80
2023-03-10T00:56:32.186Z,5.70
2023-03-10T00:59:02.068Z,5.50
2023-03-10T01:01:37.128Z,6.80
2023-03-10T01:04:11.583Z,6.30
2023-03-10T01:06:42.716Z,6.00
2023-03-10T01:09:14.118Z,6.50
2023-03-10T01:11:45.000Z,5.10
2023-03-10T01:14:16.610Z,6.40
2023-03-10T01:16:46.306Z,5.80
2023-03-10T01:19:18.568Z,5.80
2023-03-10T01:21:47.705Z,6.00
2023-03-10T01:24:17.777Z,6.10
2023-03-10T01:26:51.594Z,5.20
2023-03-10T01:29:22.436Z,4.90
2023-03-10T01:31:53.097Z,5.00
2023-03-10T01:34:23.819Z,4.90
2023-03-10T01:36:54.165Z,5.50
2023-03-10T01:39:24.787Z,5.00
2023-03-10T01:41:54.784Z,5.40
2023-03-10T01:44:23.952Z,5.00
2023-03-10T01:46:59.609Z,5.10
2023-03-10T01:49:40.444Z,6.10
2023-03-10T01:52:17.001Z,5.10
2023-03-10T01:54:55.281Z,5.90
2023-03-10T01:57:33.572Z,5.70
2023-03-10T02:00:12.269Z,5.00
2023-03-10T02:02:57.042Z,5.50
2023-03-10T02:05:27.727Z,5.30
2023-03-10T02:08:01.677Z,5.30
2023-03-10T02:10:30.862Z,4.90
2023-03-10T02:13:00.572Z,4.70
2023-03-10T02:15:30.802Z,4.90
2023-03-10T02:18:05.280Z,5.30
2023-03-10T02:20:53.033Z,4.60
2023-03-10T02:24:00.336Z,5.10
2023-03-10T02:26:58.455Z,4.80
2023-03-10T02:29:45.537Z,5.70
2023-03-10T02:32:35.661Z,5.10
2023-03-10T02:35:06.481Z,5.20
2023-03-10T02:37:38.356Z,5.50
2023-03-10T02:40:34.164Z,5.20
2023-03-10T02:43:19.778Z,5.40
2023-03-10T02:45:56.112Z,5.30
2023-03-10T02:48:34.576Z,5.30
2023-03-10T02:51:13.498Z,5.30
2023-03-10T02:53:43.758Z,5.40
2023-03-10T02:56:13.663Z,6.30
2023-03-10T02:58:44.692Z,5.50
2023-03-10T03:01:15.402Z,5.40
2023-03-10T03:03:44.848Z,5.00
2023-03-10T03:06:14.826Z,6.10
2023-03-10T03:08:45.201Z,8.10
2023-03-10T03:11:17.566Z,6.60
2023-03-10T03:13:46.635Z,5.50
2023-03-10T03:16:17.533Z,5.50
2023-03-10T03:18:48.730Z,5.30
2023-03-10T03:21:21.816Z,6.10
2023-03-10T03:23:51.889Z,9.00
2023-03-10T03:26:24.881Z,5.80
2023-03-10T03:28:58.572Z,5.10
2023-03-10T03:31:32.431Z,5.00
2023-03-10T03:34:13.292Z,5.20
2023-03-10T03:36:44.272Z,4.60
2023-03-10T03:39:17.903Z,5.30
2023-03-10T03:41:53.920Z,5.20
2023-03-10T03:44:25.491Z,5.30
2023-03-10T03:46:56.167Z,4.80
2023-03-10T03:49:26.603Z,4.90
2023-03-10T03:51:56.940Z,4.70
2023-03-10T03:54:27.147Z,10.30
2023-03-10T03:56:56.380Z,5.80
2023-03-10T03:59:25.689Z,5.20
2023-03-10T04:01:55.224Z,5.00
2023-03-10T04:04:25.887Z,5.40
2023-03-10T04:06:57.580Z,4.60
2023-03-10T04:09:26.733Z,5.00
2023-03-10T04:12:00.039Z,4.60
2023-03-10T04:14:29.759Z,4.50
2023-03-10T04:16:59.751Z,4.70
2023-03-10T04:19:29.440Z,4.60
2023-03-10T04:22:05.171Z,3.50
2023-03-10T04:24:35.151Z,4.60
2023-03-10T04:27:12.267Z,4.10
2023-03-10T04:29:43.010Z,4.60
2023-03-10T04:32:13.483Z,5.20
2023-03-10T04:34:44.673Z,4.60
2023-03-10T04:39:45.462Z,6.20
2023-03-10T04:42:18.297Z,7.60
2023-03-10T04:44:49.143Z,14.60
2023-03-10T04:47:19.282Z,11.10
2023-03-10T04:49:49.303Z,7.00
2023-03-10T04:52:19.595Z,6.50
2023-03-10T04:54:51.023Z,4.40
2023-03-10T04:57:25.154Z,4.50
2023-03-10T05:00:34.864Z,5.20
2023-03-10T05:03:07.127Z,7.80
2023-03-10T05:05:37.731Z,8.60
2023-03-10T05:08:08.912Z,8.30
2023-03-10T05:10:48.202Z,8.10
2023-03-10T05:13:17.940Z,7.00
2023-03-10T05:15:51.077Z,6.30
2023-03-10T05:18:22.051Z,6.10
2023-03-10T05:20:59.102Z,6.90
2023-03-10T05:23:31.230Z,5.70
2023-03-10T05:26:13.284Z,5.50
2023-03-10T05:28:43.259Z,4.90
2023-03-10T05:31:16.489Z,4.20
2023-03-10T05:33:48.517Z,4.80
2023-03-10T05:36:17.912Z,5.20
2023-03-10T05:38:48.173Z,5.20
2023-03-10T05:41:19.109Z,4.40
2023-03-10T05:43:50.646Z,4.00
2023-03-10T05:46:24.394Z,4.80
2023-03-10T05:48:57.745Z,5.40
2023-03-10T05:51:32.923Z,5.60
2023-03-10T05:54:09.615Z,5.40
2023-03-10T05:56:39.103Z,4.60
2023-03-10T05:59:08.985Z,7.60
2023-03-10T06:01:40.489Z,8.70
2023-03-10T06:04:09.877Z,6.80
2023-03-10T06:06:42.405Z,9.10
2023-03-10T06:11:50.187Z,9.50
2023-03-10T06:14:19.605Z,11.50
2023-03-10T06:16:53.197Z,9.80
2023-03-10T06:19:33.038Z,10.80
2023-03-10T06:22:03.482Z,9.80
2023-03-10T06:24:40.412Z,10.90
2023-03-10T06:27:13.132Z,9.70
2023-03-10T06:29:44.426Z,9.00
2023-03-10T06:32:14.063Z,10.40
2023-03-10T06:34:43.510Z,10.10
2023-03-10T06:37:14.682Z,11.80
2023-03-10T06:39:46.076Z,13.20
2023-03-10T06:42:15.126Z,14.30
2023-03-10T06:44:46.085Z,13.60
2023-03-10T06:47:16.639Z,16.20
2023-03-10T06:49:45.930Z,14.90
2023-03-10T06:52:15.263Z,13.90
2023-03-10T06:54:45.267Z,15.30
2023-03-10T06:57:14.589Z,14.80
2023-03-10T06:59:44.233Z,13.20
2023-03-10T07:02:22.339Z,13.30
2023-03-10T07:05:03.719Z,13.90
2023-03-10T07:07:52.897Z,12.20
2023-03-10T07:10:23.180Z,13.70
2023-03-10T07:13:03.606Z,13.30
2023-03-10T07:15:32.934Z,14.10
2023-03-10T07:18:28.282Z,12.60
2023-03-10T07:20:59.321Z,12.80
2023-03-10T07:23:28.867Z,12.50
2023-03-10T07:26:04.623Z,11.90
2023-03-10T07:28:39.423Z,13.20
2023-03-10T07:31:11.322Z,12.70
2023-03-10T07:33:41.497Z,13.20
2023-03-10T07:36:15.586Z,13.70
2023-03-10T07:38:45.253Z,12.50
2023-03-10T07:41:17.591Z,10.20
2023-03-10T07:43:47.968Z,11.70
2023-03-10T07:46:18.366Z,13.80
2023-03-10T07:48:49.885Z,10.90
2023-03-10T07:51:20.526Z,10.00
2023-03-10T07:53:49.678Z,9.60
2023-03-10T07:56:18.776Z,8.90
2023-03-10T07:58:52.055Z,9.20
2023-03-10T08:01:23.088Z,8.50
2023-03-10T08:03:55.340Z,7.90
2023-03-10T08:06:28.360Z,7.50
2023-03-10T08:08:58.548Z,7.70
2023-03-10T08:11:29.938Z,6.90
2023-03-10T08:13:59.102Z,7.50
2023-03-10T08:16:29.323Z,7.10
2023-03-10T08:18:58.536Z,7.70
2023-03-10T08:21:27.731Z,7.60
2023-03-10T08:23:57.530Z,7.40
2023-03-10T08:26:27.564Z,7.20
2023-03-10T08:28:58.241Z,6.90
2023-03-10T08:31:28.466Z,6.90
2023-03-10T08:36:31.195Z,8.00
2023-03-10T08:41:36.404Z,6.70
2023-03-10T08:44:07.831Z,6.10
2023-03-10T08:46:46.786Z,6.30
2023-03-10T08:49:21.202Z,7.20
2023-03-10T08:51:50.461Z,6.60
2023-03-10T08:54:22.205Z,6.70
2023-03-10T08:56:51.677Z,6.30
2023-03-10T08:59:23.273Z,6.00
2023-03-10T09:01:53.448Z,5.80
2023-03-10T09:04:23.147Z,5.80
2023-03-10T09:06:52.216Z,5.60
2023-03-10T09:09:21.949Z,5.00
2023-03-10T09:11:52.596Z,5.60
2023-03-10T09:14:24.280Z,6.00
2023-03-10T09:17:00.370Z,6.10
2023-03-10T09:19:29.597Z,5.60
2023-03-10T09:21:59.915Z,5.70
2023-03-10T09:24:29.206Z,5.20
2023-03-10T09:26:58.474Z,5.50
2023-03-10T09:29:42.157Z,5.80
2023-03-10T09:32:13.806Z,4.80
2023-03-10T09:34:43.201Z,4.90
2023-03-10T09:37:12.295Z,5.00
2023-03-10T09:39:42.953Z,5.20
2023-03-10T09:42:40.425Z,5.00
2023-03-10T09:45:27.106Z,4.60
2023-03-10T09:48:03.808Z,4.30
2023-03-10T09:50:40.252Z,4.20
2023-03-10T09:53:26.209Z,4.40
2023-03-10T09:56:03.502Z,4.20
2023-03-10T09:58:38.504Z,5.40
2023-03-10T10:01:25.898Z,6.00
2023-03-10T10:04:08.556Z,6.20
2023-03-10T10:06:40.472Z,4.90
2023-03-10T10:09:25.656Z,2.90
2023-03-10T10:11:56.675Z,2.60
2023-03-10T10:14:32.067Z,2.60
2023-03-10T10:17:35.477Z,3.80
2023-03-10T10:20:32.329Z,3.60
2023-03-10T10:23:02.055Z,3.30
2023-03-10T10:25:33.112Z,3.80
2023-03-10T10:28:05.411Z,3.80
2023-03-10T10:30:42.380Z,4.20
2023-03-10T10:36:02.926Z,4.40
2023-03-10T10:38:33.374Z,3.90
2023-03-10T10:41:18.172Z,4.10
2023-03-10T10:43:48.886Z,5.30
2023-03-10T10:46:30.326Z,5.30
2023-03-10T10:49:23.944Z,5.30
2023-03-10T10:52:06.004Z,5.20
2023-03-10T10:54:44.315Z,4.60
2023-03-10T10:57:22.677Z,4.20
2023-03-10T10:59:52.390Z,3.80
2023-03-10T11:02:25.298Z,3.60
2023-03-10T11:05:18.715Z,3.30
2023-03-10T11:07:54.130Z,2.90
2023-03-10T11:10:33.378Z,3.70
2023-03-10T11:13:22.423Z,3.60
2023-03-10T11:15:57.985Z,3.70
2023-03-10T11:18:59.055Z,3.90
2023-03-10T11:21:32.047Z,4.00
2023-03-10T11:24:20.745Z,3.90
2023-03-10T11:27:02.140Z,3.60
2023-03-10T11:30:03.062Z,3.30
2023-03-10T11:32:42.904Z,3.70
2023-03-10T11:35:30.537Z,3.80
2023-03-10T11:38:25.296Z,4.50
2023-03-10T11:41:01.272Z,4.00
2023-03-10T11:44:04.234Z,3.30
2023-03-10T11:46:51.160Z,3.10
2023-03-10T11:49:28.400Z,2.90
2023-03-10T11:52:09.357Z,2.80
2023-03-10T11:55:06.422Z,2.90
2023-03-10T11:57:44.721Z,3.60
2023-03-10T12:00:33.400Z,2.50
2023-03-10T12:03:21.218Z,3.00
2023-03-10T12:06:00.535Z,3.20
2023-03-10T12:08:35.677Z,2.90
2023-03-10T12:11:17.907Z,3.30
2023-03-10T12:14:00.827Z,1.90
2023-03-10T12:16:37.434Z,1.30
2023-03-10T12:19:08.715Z,1.30
2023-03-10T12:21:38.810Z,1.90
2023-03-10T12:24:47.794Z,2.50
2023-03-10T12:27:18.196Z,2.00
2023-03-10T12:29:48.106Z,1.80
2023-03-10T12:32:43.780Z,1.40
2023-03-10T12:35:47.974Z,1.90
2023-03-10T12:38:43.067Z,1.30
2023-03-10T12:41:44.933Z,1.30
2023-03-10T12:44:36.619Z,1.30
2023-03-10T12:47:34.492Z,1.10
2023-03-10T12:50:42.682Z,1.30
2023-03-10T12:53:14.671Z,1.50
2023-03-10T12:56:18.329Z,1.30
2023-03-10T12:59:15.765Z,1.60
2023-03-10T13:01:55.914Z,1.50
2023-03-10T13:04:33.323Z,1.10
2023-03-10T13:07:17.182Z,1.70
2023-03-10T13:09:50.558Z,1.30
2023-03-10T13:12:38.071Z,1.60
2023-03-10T13:15:24.623Z,1.80
2023-03-10T13:18:21.168Z,1.70
2023-03-10T13:20:51.097Z,2.00
2023-03-10T13:23:28.402Z,1.60
2023-03-10T13:26:09.654Z,1.60
2023-03-10T13:28:55.236Z,1.30
2023-03-10T13:31:31.764Z,1.60
2023-03-10T13:34:28.752Z,1.50
2023-03-10T13:37:27.197Z,2.20
2023-03-10T13:40:11.848Z,1.80
2023-03-10T13:42:45.325Z,1.70
2023-03-10T13:45:23.997Z,1.90
2023-03-10T13:47:55.538Z,1.60
2023-03-10T13:50:25.217Z,1.50
2023-03-10T13:53:00.260Z,1.30
2023-03-10T13:55:42.427Z,1.50
2023-03-10T13:58:14.231Z,1.50
2023-03-10T14:03:21.164Z,1.50
2023-03-10T14:05:50.812Z,2.20
2023-03-10T14:08:31.343Z,1.60
2023-03-10T14:11:22.516Z,1.70
2023-03-10T14:13:52.564Z,1.40
2023-03-10T14:16:58.204Z,1.30
2023-03-10T14:19:43.718Z,1.60
2023-03-10T14:22:26.206Z,1.90
2023-03-10T14:24:59.353Z,1.60
2023-03-10T14:27:29.434Z,1.80
2023-03-10T14:30:02.848Z,1.90
2023-03-10T14:32:54.766Z,1.60
2023-03-10T14:35:25.899Z,1.90
2023-03-10T14:37:58.494Z,1.80
2023-03-10T14:40:28.121Z,2.20
2023-03-10T14:43:01.663Z,1.90
2023-03-10T14:45:34.931Z,1.90
2023-03-10T14:48:18.350Z,2.00
2023-03-10T14:50:51.018Z,1.80
2023-03-10T14:53:58.612Z,2.50
2023-03-10T14:56:28.900Z,2.10
2023-03-10T14:59:11.034Z,2.30
2023-03-10T15:01:46.286Z,1.80
2023-03-10T15:04:23.120Z,2.20
2023-03-10T15:06:59.770Z,1.70
2023-03-10T15:09:32.482Z,2.20
2023-03-10T15:12:02.058Z,2.00
2023-03-10T15:14:35.877Z,1.90
2023-03-10T15:17:13.344Z,2.40
2023-03-10T15:19:44.045Z,2.10
2023-03-10T15:22:13.199Z,2.30
2023-03-10T15:24:54.875Z,2.90
2023-03-10T15:27:34.748Z,3.10
2023-03-10T15:30:05.026Z,3.10
2023-03-10T15:32:34.574Z,3.00
2023-03-10T15:35:04.892Z,3.10
2023-03-10T15:37:34.344Z,3.10
2023-03-10T15:40:05.551Z,3.10
2023-03-10T15:42:34.814Z,3.10
2023-03-10T15:45:16.535Z,3.10
2023-03-10T15:50:28.173Z,3.20
2023-03-10T15:53:01.140Z,4.40
2023-03-10T15:55:38.785Z,3.50
2023-03-10T15:58:16.912Z,3.60
2023-03-10T16:00:46.784Z,3.60
2023-03-10T16:03:18.411Z,3.10
2023-03-10T16:05:50.509Z,3.40
2023-03-10T16:08:20.450Z,3.40
2023-03-10T16:10:55.992Z,4.20
2023-03-10T16:13:29.173Z,4.00
2023-03-10T16:16:24.195Z,3.60
2023-03-10T16:18:58.322Z,3.50
2023-03-10T16:21:31.358Z,3.80
2023-03-10T16:24:00.950Z,3.50
2023-03-10T16:26:30.854Z,3.50
2023-03-10T16:29:01.359Z,3.70
2023-03-10T16:31:31.700Z,3.90
2023-03-10T16:34:01.045Z,4.10
2023-03-10T16:36:30.957Z,4.60
2023-03-10T16:39:10.300Z,4.60
2023-03-10T16:41:55.812Z,4.90
2023-03-10T16:44:28.551Z,4.90
2023-03-10T16:46:58.160Z,4.30
2023-03-10T16:49:45.691Z,4.80
2023-03-10T16:52:18.560Z,4.00
2023-03-10T16:54:48.948Z,8.70
2023-03-10T16:57:18.481Z,7.40
2023-03-10T17:00:13.064Z,6.30
2023-03-10T17:02:45.531Z,7.00
2023-03-10T17:05:19.942Z,5.90
2023-03-10T17:08:01.187Z,5.40
2023-03-10T17:10:45.814Z,6.10
2023-03-10T17:13:39.659Z,6.80
2023-03-10T17:16:56.683Z,7.60
2023-03-10T17:23:09.169Z,7.60
2023-03-10T17:25:52.506Z,8.20
2023-03-10T17:28:28.832Z,6.90
2023-03-10T17:30:57.901Z,9.60
2023-03-10T17:33:27.043Z,7.00
2023-03-10T17:35:56.320Z,6.30
2023-03-10T17:38:32.045Z,6.50
2023-03-10T17:41:10.775Z,7.00
2023-03-10T17:43:40.613Z,6.90
2023-03-10T17:46:25.719Z,7.20
2023-03-10T17:48:58.634Z,7.40
2023-03-10T17:51:32.622Z,8.30
2023-03-10T17:54:02.579Z,8.40
2023-03-10T17:56:39.054Z,9.50
2023-03-10T17:59:11.324Z,10.70
2023-03-10T18:01:43.537Z,9.70
2023-03-10T18:04:33.591Z,10.10
2023-03-10T18:07:44.017Z,10.20
2023-03-10T18:10:19.950Z,10.20
2023-03-10T18:12:51.226Z,11.20
2023-03-10T18:15:36.126Z,11.80
2023-03-10T18:18:20.716Z,11.90
2023-03-10T18:21:03.655Z,14.10
2023-03-10T18:23:45.697Z,11.70
2023-03-10T18:26:30.205Z,11.30
2023-03-10T18:29:03.050Z,11.80
2023-03-10T18:31:36.747Z,10.50
2023-03-10T18:34:06.352Z,10.50
2023-03-10T18:36:35.776Z,11.30
2023-03-10T18:39:08.230Z,10.30
2023-03-10T18:41:37.664Z,12.40
2023-03-10T18:44:07.264Z,11.80
2023-03-10T18:46:37.652Z,10.60
2023-03-10T18:49:12.496Z,11.80
2023-03-10T18:51:43.986Z,10.60
2023-03-10T18:54:31.226Z,10.20
2023-03-10T18:57:25.445Z,11.10
2023-03-10T19:00:10.357Z,11.60
2023-03-10T19:02:44.209Z,11.40
2023-03-10T19:05:40.493Z,9.40
2023-03-10T19:08:40.490Z,9.40
2023-03-10T19:11:16.331Z,10.20
2023-03-10T19:13:52.446Z,9.90
2023-03-10T19:16:25.474Z,11.20
2023-03-10T19:18:57.784Z,9.90
2023-03-10T19:21:27.938Z,11.70
2023-03-10T19:24:23.418Z,10.30
2023-03-10T19:26:59.454Z,10.10
2023-03-10T19:29:29.903Z,10.90
2023-03-10T19:32:06.751Z,11.30
2023-03-10T19:34:37.646Z,12.00
2023-03-10T19:37:06.810Z,11.50
2023-03-10T19:39:52.559Z,13.20
2023-03-10T19:42:33.797Z,11.00
2023-03-10T19:45:39.958Z,11.60
2023-03-10T19:48:22.926Z,11.50
2023-03-10T19:50:58.945Z,11.00
2023-03-10T19:53:30.844Z,10.70
2023-03-10T19:56:04.173Z,12.30
2023-03-10T19:58:46.962Z,11.80
2023-03-10T20:01:56.032Z,12.60
2023-03-10T20:04:35.516Z,11.30
2023-03-10T20:07:18.523Z,12.00
2023-03-10T20:10:06.996Z,11.10
2023-03-10T20:12:56.713Z,11.20
2023-03-10T20:15:26.962Z,11.30
2023-03-10T20:18:06.194Z,11.90
2023-03-10T20:20:35.348Z,12.00
2023-03-10T20:23:04.881Z,11.30
2023-03-10T20:25:33.882Z,11.20
2023-03-10T20:28:02.972Z,9.80
2023-03-10T20:30:33.285Z,11.20
2023-03-10T20:33:03.501Z,11.10
2023-03-10T20:35:33.943Z,10.20
2023-03-10T20:38:04.473Z,10.80
2023-03-10T20:40:33.556Z,11.40
2023-03-10T20:43:02.725Z,11.10
2023-03-10T20:45:33.241Z,10.10
2023-03-10T20:48:02.866Z,10.50
2023-03-10T20:50:55.394Z,10.10
2023-03-10T20:53:40.190Z,8.60
2023-03-10T20:56:11.948Z,7.80
2023-03-10T20:58:41.187Z,8.80
2023-03-10T21:01:21.887Z,10.20
2023-03-10T21:04:00.138Z,10.60
2023-03-10T21:06:29.750Z,9.00
2023-03-10T21:09:02.066Z,9.70
2023-03-10T21:11:31.380Z,10.00
2023-03-10T21:14:01.059Z,10.50
2023-03-10T21:16:30.398Z,11.20
2023-03-10T21:18:59.653Z,10.40
2023-03-10T21:21:32.153Z,10.10
2023-03-10T21:24:03.994Z,9.80
2023-03-10T21:26:33.815Z,10.60
2023-03-10T21:29:04.225Z,10.20
2023-03-10T21:31:33.416Z,8.70
2023-03-10T21:34:03.628Z,8.40
2023-03-10T21:36:33.283Z,7.60
2023-03-10T21:39:09.700Z,8.00
2023-03-10T21:41:40.338Z,7.60
2023-03-10T21:44:11.489Z,7.90
2023-03-10T21:46:41.459Z,7.00
2023-03-10T21:49:11.819Z,7.60
2023-03-10T21:51:42.388Z,7.90
2023-03-10T21:54:11.654Z,7.50
2023-03-10T21:56:42.051Z,8.10
2023-03-10T21:59:11.207Z,8.90
2023-03-10T22:01:41.331Z,8.50
2023-03-10T22:04:12.955Z,9.00
2023-03-10T22:06:43.012Z,8.50
2023-03-10T22:09:12.767Z,8.40
2023-03-10T22:11:42.916Z,8.60
2023-03-10T22:14:13.723Z,8.20
2023-03-10T22:16:45.106Z,8.90
2023-03-10T22:19:14.648Z,8.80
2023-03-10T22:24:17.535Z,10.70
2023-03-10T22:26:46.579Z,16.20
2023-03-10T22:29:16.320Z,18.50
2023-03-10T22:31:45.864Z,19.50
2023-03-10T22:34:15.993Z,17.00
2023-03-10T22:36:45.544Z,14.10
2023-03-10T22:39:16.044Z,14.30
2023-03-10T22:41:46.348Z,10.10
2023-03-10T22:44:21.443Z,9.60
2023-03-10T22:49:22.790Z,8.20
2023-03-10T22:51:53.311Z,10.90
2023-03-10T22:54:23.640Z,9.80
2023-03-10T22:56:53.380Z,10.40
2023-03-10T22:59:23.212Z,9.10
2023-03-10T23:01:52.197Z,11.30
2023-03-10T23:04:21.944Z,12.60
2023-03-10T23:06:51.852Z,11.10
2023-03-10T23:09:22.950Z,13.50
2023-03-10T23:11:55.197Z,13.60
2023-03-10T23:14:27.803Z,12.60
2023-03-10T23:16:58.251Z,13.00
2023-03-10T23:19:28.258Z,13.10
2023-03-10T23:21:57.341Z,15.80
2023-03-10T23:24:27.037Z,14.90
2023-03-10T23:26:56.745Z,14.70
2023-03-10T23:29:25.973Z,21.70
2023-03-10T23:31:55.700Z,21.80
2023-03-10T23:34:25.378Z,19.80
2023-03-10T23:36:57.775Z,19.90
2023-03-10T23:39:29.772Z,16.80
2023-03-10T23:41:59.141Z,15.80
2023-03-10T23:44:29.230Z,15.60
2023-03-10T23:46:58.350Z,13.70
2023-03-10T23:49:28.050Z,15.80
2023-03-10T23:51:58.994Z,14.40
2023-03-10T23:54:30.823Z,14.90
2023-03-10T23:57:00.215Z,16.30
2023-03-10T23:59:30.865Z,16.50
